Flight Track Log - Related Links

Times and Time Zones

All times are in EDT time to prevent confusion due to time zone crossing. See the SWA3313 flight status page for this flight to view local times or setup timezone preferences in your user account.

Time Position Orientation Groundspeed Altitude Reporting Facility
EDT Latitude Longitude Course Direction KTS MPH feet Rate Location/Type
Fri 09:08:29 PM 39.1833 -76.7000 270° West 174 200 2,200  Level Potomac TRACON
Fri 09:09:29 PM 39.1833 -76.7833 270° West 217 250 5,000 3,250 Climbing Potomac TRACON
Fri 09:10:29 PM 39.2000 -76.8667 284° West 267 307 8,700 3,769 Climbing Potomac TRACON
Fri 09:11:30 PM 39.2167 -76.9667 282° West 270 311 12,600 3,620 Climbing Potomac TRACON
Fri 09:12:30 PM 39.2333 -77.0500 285° West 266 306 16,000 2,059 Climbing Potomac TRACON
Fri 09:14:19 PM 39.1783 -77.1686 239° Southwest 239 275 18,400 1,740 Climbing Washington Center
Fri 09:15:19 PM 39.1150 -77.2128 208° Southwest 247 284 20,900 2,050 Climbing Washington Center
Fri 09:16:19 PM 39.0456 -77.2700 213° Southwest 273 314 22,500 1,050 Climbing Washington Center
Fri 09:17:19 PM 38.9694 -77.3350 214° Southwest 306 352 23,000 1,300 Climbing Washington Center
Fri 09:18:19 PM 38.8997 -77.4108 220° Southwest 324 373 25,100 2,000 Climbing Washington Center
Fri 09:19:19 PM 38.8297 -77.4917 222° Southwest 330 380 27,000 950 Climbing Washington Center
Fri 09:20:19 PM 38.7553 -77.5750 221° Southwest 344 396 27,000  Level Washington Center
Fri 09:21:19 PM 38.6850 -77.6581 223° Southwest 344 396 27,000 650 Level Washington Center
Fri 09:22:19 PM 38.6128 -77.7386 221° Southwest 344 396 28,300 1,350 Climbing Washington Center
Fri 09:23:19 PM 38.5361 -77.8264 222° Southwest 349 402 29,700 1,488 Climbing Washington Center
Fri 09:24:20 PM 38.4508 -77.9219 221° Southwest 359 413 31,300 1,150 Climbing Washington Center
Fri 09:25:19 PM 38.3742 -78.0122 223° Southwest 376 433 32,000 353 Climbing Washington Center
Fri 09:26:19 PM 38.2950 -78.0997 221° Southwest 376 433 32,000  Level Washington Center
Fri 09:27:19 PM 38.2161 -78.1869 221° Southwest 376 433 32,000  Level Washington Center
Fri 09:28:19 PM 38.1392 -78.2739 222° Southwest 371 427 32,000  Level Washington Center
Fri 09:29:19 PM 38.0619 -78.3608 222° Southwest 371 427 32,000  Level Washington Center
Fri 09:30:19 PM 37.9936 -78.4347 220° Southwest 371 427 32,000  Level Washington Center
Fri 09:31:19 PM 37.9186 -78.5189 222° Southwest 366 421 32,000  Level Washington Center
Fri 09:32:19 PM 37.8350 -78.6103 221° Southwest 366 421 32,000  Level Washington Center
Fri 09:33:19 PM 37.7597 -78.6939 221° Southwest 366 421 32,000 -350 Level Washington Center
Fri 09:34:19 PM 37.6847 -78.7750 221° Southwest 366 421 31,300 -1,100 Descending Washington Center
Fri 09:35:19 PM 37.6053 -78.8608 221° Southwest 371 427 29,800 -1,400 Descending Washington Center
Fri 09:36:19 PM 37.5386 -78.9311 220° Southwest 366 421 28,500 -900 Descending Washington Center
Fri 09:37:19 PM 37.4633 -79.0117 220° Southwest 366 421 28,000 -250 Descending Washington Center
Fri 09:38:19 PM 37.3881 -79.0944 221° Southwest 366 421 28,000  Level Washington Center
Fri 09:39:19 PM 37.3125 -79.1719 219° Southwest 366 421 28,000  Level Washington Center
Fri 09:40:19 PM 37.2372 -79.2519 220° Southwest 366 421 28,000  Level Washington Center
Fri 09:41:19 PM 37.1453 -79.3258 213° Southwest 366 421 28,000  Level Washington Center
Fri 09:42:19 PM 37.0617 -79.3944 213° Southwest 361 415 28,000  Level Washington Center
Fri 09:43:19 PM 36.9825 -79.4608 214° Southwest 361 415 28,000  Level Washington Center
Fri 09:44:19 PM 36.9008 -79.5294 214° Southwest 361 415 28,000  Level Washington Center
Fri 09:45:19 PM 36.8194 -79.5953 213° Southwest 361 415 28,000  Level Washington Center
Fri 09:46:19 PM 36.7464 -79.6564 214° Southwest 361 415 28,000  Level Washington Center
Fri 09:47:19 PM 36.6669 -79.7194 212° Southwest 361 415 28,000  Level Washington Center
Fri 09:48:19 PM 36.5833 -79.7875 213° Southwest 361 415 28,000 -692 Level Washington Center
Fri 09:49:29 PM 36.4878 -79.8633 213° Southwest 345 397 26,500 -1,662 Descending Atlanta Center
Fri 09:50:29 PM 36.4106 -79.9242 212° Southwest 345 397 24,400 -2,150 Descending Atlanta Center
Fri 09:51:29 PM 36.3336 -79.9900 215° Southwest 340 391 22,200 -1,200 Descending Atlanta Center
Fri 09:52:29 PM 36.2544 -80.0556 214° Southwest 333 383 22,000 -100 Descending Atlanta Center
Fri 09:53:29 PM 36.1853 -80.1131 214° Southwest 321 369 22,000 -450 Level Atlanta Center
Fri 09:54:29 PM 36.1203 -80.1703 215° Southwest 316 364 21,100 -1,250 Descending Atlanta Center
Fri 09:55:29 PM 36.0575 -80.2244 215° Southwest 298 343 19,500 -1,700 Descending Atlanta Center
Fri 09:56:29 PM 36.0047 -80.2706 215° Southwest 281 323 17,700 -1,650 Descending Atlanta Center
Fri 09:57:29 PM 35.9456 -80.3222 215° Southwest 271 312 16,200 -1,548 Descending Atlanta Center
Fri 09:58:02 PM 35.9092 -80.3572 218° Southwest 255 293 15,300 -1,500 Descending Atlanta Center
Fri 09:58:29 PM 35.8806 -80.3764 208° Southwest 265 305 14,700 -1,448 Descending Atlanta Center
Fri 09:59:29 PM 35.8256 -80.4250 216° Southwest 257 296 13,200 -779 Descending Atlanta Center
Fri 10:00:40 PM 35.7647 -80.4789 216° Southwest 228 262 13,000 -857 Descending Atlanta Center
Fri 10:01:35 PM 35.7092 -80.5094 204° Southwest 247 284 11,400 -1,043 Descending Atlanta Center
Fri 10:02:35 PM 35.6433 -80.5428 202° Southwest 246 283 11,000 -684 Descending Atlanta Center
Fri 10:03:29 PM 35.5942 -80.5706 205° Southwest 237 273 10,100 -1,526 Descending Atlanta Center
Fri 10:04:29 PM 35.5389 -80.6061 208° Southwest 230 265 8,100 -1,850 Descending Atlanta Center
Fri 10:05:29 PM 35.4900 -80.6489 215° Southwest 237 273 6,400 -1,950 Descending Atlanta Center
Fri 10:06:29 PM 35.4328 -80.6972 215° Southwest 247 284 4,200 -1,161 Descending Atlanta Center
Fri 10:07:33 PM 35.3703 -80.7478 213° Southwest 233 268 4,000 -145 Descending FAA TRACON SMA TRACON (SMA)
Fri 10:07:52 PM 35.3522 -80.7631 215° Southwest 210 242 4,000  Level FAA TRACON SMA TRACON (SMA)
Fri 10:08:12 PM 35.3386 -80.7744 214° Southwest 195 224 4,000 -293 Level FAA TRACON SMA TRACON (SMA)
Fri 10:08:33 PM 35.3272 -80.7869 222° Southwest 182 209 3,800 -750 Descending FAA TRACON SMA TRACON (SMA)
Fri 10:08:52 PM 35.3150 -80.8042 229° Southwest 174 200 3,500 -900 Descending FAA TRACON SMA TRACON (SMA)
Fri 10:09:13 PM 35.3053 -80.8172 228° Southwest 166 191 3,200 -900 Descending FAA TRACON SMA TRACON (SMA)
Fri 10:09:32 PM 35.2961 -80.8303 229° Southwest 163 188 2,900 -769 Descending FAA TRACON SMA TRACON (SMA)
Fri 10:09:52 PM 35.2875 -80.8422 229° Southwest 154 177 2,700 -750 Descending FAA TRACON SMA TRACON (SMA)
Fri 10:10:12 PM 35.2772 -80.8558 227° Southwest 140 161 2,400 -900 Descending FAA TRACON SMA TRACON (SMA)
Fri 10:10:32 PM 35.2700 -80.8658 229° Southwest 129 148 2,100 -732 Descending FAA TRACON SMA TRACON (SMA)
Fri 10:10:53 PM 35.2614 -80.8769 226° Southwest 117 135 1,900 -600 Descending FAA TRACON SMA TRACON (SMA)
Fri 10:11:12 PM 35.2550 -80.8864 230° Southwest 117 135 1,700 -600 Descending FAA TRACON SMA TRACON (SMA)
Fri 10:11:33 PM 35.2481 -80.8961 229° Southwest 119 137 1,500 -750 Descending FAA TRACON SMA TRACON (SMA)
Fri 10:11:52 PM 35.2392 -80.9081 228° Southwest 121 139 1,200 -615 Descending FAA TRACON SMA TRACON (SMA)
Fri 10:12:12 PM 35.2322 -80.9181 230° Southwest 125 144 1,100 -585 Descending FAA TRACON SMA TRACON (SMA)
Fri 10:12:33 PM 35.2247 -80.9283 228° Southwest 126 145 800 -295 Descending FAA TRACON SMA TRACON (SMA)
Fri 10:13:13 PM 35.2247 -80.9283 309° West 126 145 800  Level FAA TRACON SMA TRACON (SMA)

Login

Don't have an account? Register now (free) for customized features, flight alerts, and more!